sensor_id;sensor_type;location;lat;lon;timestamp;temperature;humidity
3644;DHT22;1838;50.742;7.158;2023-04-01T00:00:57;12.20;99.90
3644;DHT22;1838;50.742;7.158;2023-04-01T00:03:23;12.20;99.90
3644;DHT22;1838;50.742;7.158;2023-04-01T00:05:54;12.30;99.90
3644;DHT22;1838;50.742;7.158;2023-04-01T00:08:20;12.30;99.90
3644;DHT22;1838;50.742;7.158;2023-04-01T00:10:46;12.20;99.90
3644;DHT22;1838;50.742;7.158;2023-04-01T00:13:12;12.30;99.90
3644;DHT22;1838;50.742;7.158;2023-04-01T00:15:40;12.30;99.90
3644;DHT22;1838;50.742;7.158;2023-04-01T00:18:11;12.20;99.90
3644;DHT22;1838;50.742;7.158;2023-04-01T00:20:37;12.20;99.90
3644;DHT22;1838;50.742;7.158;2023-04-01T00:23:03;12.10;99.90
3644;DHT22;1838;50.742;7.158;2023-04-01T00:25:31;12.10;99.90
3644;DHT22;1838;50.742;7.158;2023-04-01T00:27:56;12.10;99.90
3644;DHT22;1838;50.742;7.158;2023-04-01T00:30:22;12.10;99.90
3644;DHT22;1838;50.742;7.158;2023-04-01T00:32:52;12.00;99.90
3644;DHT22;1838;50.742;7.158;2023-04-01T00:35:18;12.00;99.90
3644;DHT22;1838;50.742;7.158;2023-04-01T00:37:44;12.00;99.90
3644;DHT22;1838;50.742;7.158;2023-04-01T00:40:28;12.00;99.90
3644;DHT22;1838;50.742;7.158;2023-04-01T00:42:54;12.00;99.90
3644;DHT22;1838;50.742;7.158;2023-04-01T00:47:56;12.00;99.90
3644;DHT22;1838;50.742;7.158;2023-04-01T00:50:26;12.00;99.90
3644;DHT22;1838;50.742;7.158;2023-04-01T00:52:53;12.10;99.90
3644;DHT22;1838;50.742;7.158;2023-04-01T00:55:21;12.00;99.90
3644;DHT22;1838;50.742;7.158;2023-04-01T00:57:49;12.10;99.90
3644;DHT22;1838;50.742;7.158;2023-04-01T01:00:16;12.00;99.90
3644;DHT22;1838;50.742;7.158;2023-04-01T01:02:44;12.00;99.90
3644;DHT22;1838;50.742;7.158;2023-04-01T01:05:14;12.00;99.90
3644;DHT22;1838;50.742;7.158;2023-04-01T01:10:26;12.00;99.90
3644;DHT22;1838;50.742;7.158;2023-04-01T01:12:59;12.00;99.90
3644;DHT22;1838;50.742;7.158;2023-04-01T01:15:48;12.00;99.90
3644;DHT22;1838;50.742;7.158;2023-04-01T01:18:53;12.00;99.90
3644;DHT22;1838;50.742;7.158;2023-04-01T01:24:21;12.10;99.90
3644;DHT22;1838;50.742;7.158;2023-04-01T01:35:24;11.90;99.90
3644;DHT22;1838;50.742;7.158;2023-04-01T01:38:06;11.90;99.90
3644;DHT22;1838;50.742;7.158;2023-04-01T01:40:34;11.80;99.90
3644;DHT22;1838;50.742;7.158;2023-04-01T01:43:08;11.80;99.90
3644;DHT22;1838;50.742;7.158;2023-04-01T01:45:37;11.80;99.90
3644;DHT22;1838;50.742;7.158;2023-04-01T01:48:05;11.80;99.90
3644;DHT22;1838;50.742;7.158;2023-04-01T01:50:32;11.80;99.90
3644;DHT22;1838;50.742;7.158;2023-04-01T01:53:08;11.80;99.90
3644;DHT22;1838;50.742;7.158;2023-04-01T01:55:42;11.80;99.90
3644;DHT22;1838;50.742;7.158;2023-04-01T01:58:29;11.80;99.90
3644;DHT22;1838;50.742;7.158;2023-04-01T02:01:00;11.80;99.90
3644;DHT22;1838;50.742;7.158;2023-04-01T02:03:29;11.80;99.90
3644;DHT22;1838;50.742;7.158;2023-04-01T02:05:59;11.80;99.90
3644;DHT22;1838;50.742;7.158;2023-04-01T02:08:34;11.90;99.90
3644;DHT22;1838;50.742;7.158;2023-04-01T02:11:10;11.80;99.90
3644;DHT22;1838;50.742;7.158;2023-04-01T02:13:55;11.80;99.90
3644;DHT22;1838;50.742;7.158;2023-04-01T02:17:34;11.80;99.90
3644;DHT22;1838;50.742;7.158;2023-04-01T02:19:50;11.80;99.90
3644;DHT22;1838;50.742;7.158;2023-04-01T02:22:21;11.80;99.90
3644;DHT22;1838;50.742;7.158;2023-04-01T02:24:49;11.90;99.90
3644;DHT22;1838;50.742;7.158;2023-04-01T02:27:15;11.90;99.90
3644;DHT22;1838;50.742;7.158;2023-04-01T02:29:41;11.90;99.90
3644;DHT22;1838;50.742;7.158;2023-04-01T02:32:08;11.90;99.90
3644;DHT22;1838;50.742;7.158;2023-04-01T02:34:38;11.80;99.90
3644;DHT22;1838;50.742;7.158;2023-04-01T02:37:04;11.80;99.90
3644;DHT22;1838;50.742;7.158;2023-04-01T02:39:30;11.80;99.90
3644;DHT22;1838;50.742;7.158;2023-04-01T02:41:56;11.70;99.90
3644;DHT22;1838;50.742;7.158;2023-04-01T02:44:22;11.70;99.90
3644;DHT22;1838;50.742;7.158;2023-04-01T02:46:47;11.60;99.90
3644;DHT22;1838;50.742;7.158;2023-04-01T02:49:13;11.60;99.90
3644;DHT22;1838;50.742;7.158;2023-04-01T02:51:39;11.50;99.90
3644;DHT22;1838;50.742;7.158;2023-04-01T02:54:04;11.50;99.90
3644;DHT22;1838;50.742;7.158;2023-04-01T02:56:30;11.50;99.90
3644;DHT22;1838;50.742;7.158;2023-04-01T02:58:55;11.50;99.90
3644;DHT22;1838;50.742;7.158;2023-04-01T03:01:22;11.50;99.90
3644;DHT22;1838;50.742;7.158;2023-04-01T03:03:48;11.50;99.90
3644;DHT22;1838;50.742;7.158;2023-04-01T03:06:15;11.50;99.90
3644;DHT22;1838;50.742;7.158;2023-04-01T03:08:41;11.50;99.90
3644;DHT22;1838;50.742;7.158;2023-04-01T03:11:06;11.50;99.90
3644;DHT22;1838;50.742;7.158;2023-04-01T03:13:33;11.50;99.90
3644;DHT22;1838;50.742;7.158;2023-04-01T03:15:58;11.50;99.90
3644;DHT22;1838;50.742;7.158;2023-04-01T03:18:24;11.50;99.90
3644;DHT22;1838;50.742;7.158;2023-04-01T03:20:51;11.50;99.90
3644;DHT22;1838;50.742;7.158;2023-04-01T03:23:17;11.50;99.90
3644;DHT22;1838;50.742;7.158;2023-04-01T03:25:46;11.50;99.90
3644;DHT22;1838;50.742;7.158;2023-04-01T03:28:12;11.50;99.90
3644;DHT22;1838;50.742;7.158;2023-04-01T03:30:38;11.40;99.90
3644;DHT22;1838;50.742;7.158;2023-04-01T03:33:04;11.40;99.90
3644;DHT22;1838;50.742;7.158;2023-04-01T03:35:30;11.30;99.90
3644;DHT22;1838;50.742;7.158;2023-04-01T03:37:55;11.20;99.90
3644;DHT22;1838;50.742;7.158;2023-04-01T03:40:22;11.10;99.90
3644;DHT22;1838;50.742;7.158;2023-04-01T03:42:48;11.00;99.90
3644;DHT22;1838;50.742;7.158;2023-04-01T03:45:14;11.00;99.90
3644;DHT22;1838;50.742;7.158;2023-04-01T03:47:40;11.00;99.90
3644;DHT22;1838;50.742;7.158;2023-04-01T03:50:07;10.90;99.90
3644;DHT22;1838;50.742;7.158;2023-04-01T03:52:33;10.90;99.90
3644;DHT22;1838;50.742;7.158;2023-04-01T03:54:59;10.90;99.90
3644;DHT22;1838;50.742;7.158;2023-04-01T03:57:24;11.00;99.90
3644;DHT22;1838;50.742;7.158;2023-04-01T03:59:50;11.00;99.90
3644;DHT22;1838;50.742;7.158;2023-04-01T04:02:15;11.00;99.90
3644;DHT22;1838;50.742;7.158;2023-04-01T04:04:41;11.00;99.90
3644;DHT22;1838;50.742;7.158;2023-04-01T04:07:08;11.00;99.90
3644;DHT22;1838;50.742;7.158;2023-04-01T04:09:33;11.00;99.90
3644;DHT22;1838;50.742;7.158;2023-04-01T04:12:02;11.10;99.90
3644;DHT22;1838;50.742;7.158;2023-04-01T04:14:28;11.10;99.90
3644;DHT22;1838;50.742;7.158;2023-04-01T04:16:53;11.10;99.90
3644;DHT22;1838;50.742;7.158;2023-04-01T04:19:19;11.10;99.90
3644;DHT22;1838;50.742;7.158;2023-04-01T04:21:44;11.20;99.90
3644;DHT22;1838;50.742;7.158;2023-04-01T04:24:10;11.10;99.90
3644;DHT22;1838;50.742;7.158;2023-04-01T04:26:36;11.10;99.90
3644;DHT22;1838;50.742;7.158;2023-04-01T04:29:02;11.20;99.90
3644;DHT22;1838;50.742;7.158;2023-04-01T04:31:28;11.10;99.90
3644;DHT22;1838;50.742;7.158;2023-04-01T04:33:53;11.20;99.90
3644;DHT22;1838;50.742;7.158;2023-04-01T04:36:20;11.20;99.90
3644;DHT22;1838;50.742;7.158;2023-04-01T04:38:46;11.20;99.90
3644;DHT22;1838;50.742;7.158;2023-04-01T04:41:16;11.20;99.90
3644;DHT22;1838;50.742;7.158;2023-04-01T04:43:49;11.30;99.90
3644;DHT22;1838;50.742;7.158;2023-04-01T04:46:16;11.30;99.90
3644;DHT22;1838;50.742;7.158;2023-04-01T04:48:41;11.30;99.90
3644;DHT22;1838;50.742;7.158;2023-04-01T04:51:13;11.30;99.90
3644;DHT22;1838;50.742;7.158;2023-04-01T04:53:38;11.30;99.90
3644;DHT22;1838;50.742;7.158;2023-04-01T04:56:04;11.30;99.90
3644;DHT22;1838;50.742;7.158;2023-04-01T04:58:30;11.30;99.90
3644;DHT22;1838;50.742;7.158;2023-04-01T05:01:04;11.30;99.90
3644;DHT22;1838;50.742;7.158;2023-04-01T05:03:30;11.30;99.90
3644;DHT22;1838;50.742;7.158;2023-04-01T05:05:57;11.30;99.90
3644;DHT22;1838;50.742;7.158;2023-04-01T05:08:23;11.30;99.90
3644;DHT22;1838;50.742;7.158;2023-04-01T05:10:49;11.10;99.90
3644;DHT22;1838;50.742;7.158;2023-04-01T05:13:14;11.20;99.90
3644;DHT22;1838;50.742;7.158;2023-04-01T05:15:40;11.20;99.90
3644;DHT22;1838;50.742;7.158;2023-04-01T05:18:06;11.30;99.90
3644;DHT22;1838;50.742;7.158;2023-04-01T05:20:31;11.10;99.90
3644;DHT22;1838;50.742;7.158;2023-04-01T05:22:57;11.10;99.90
3644;DHT22;1838;50.742;7.158;2023-04-01T05:25:23;11.20;99.90
3644;DHT22;1838;50.742;7.158;2023-04-01T05:27:49;11.20;99.90
3644;DHT22;1838;50.742;7.158;2023-04-01T05:30:15;11.10;99.90
3644;DHT22;1838;50.742;7.158;2023-04-01T05:32:40;11.20;99.90
3644;DHT22;1838;50.742;7.158;2023-04-01T05:35:06;11.20;99.90
3644;DHT22;1838;50.742;7.158;2023-04-01T05:37:36;11.20;99.90
3644;DHT22;1838;50.742;7.158;2023-04-01T05:40:02;11.10;99.90
3644;DHT22;1838;50.742;7.158;2023-04-01T05:42:28;11.10;99.90
3644;DHT22;1838;50.742;7.158;2023-04-01T05:44:53;11.00;99.90
3644;DHT22;1838;50.742;7.158;2023-04-01T05:47:20;11.10;99.90
3644;DHT22;1838;50.742;7.158;2023-04-01T05:49:46;11.10;99.90
3644;DHT22;1838;50.742;7.158;2023-04-01T05:52:11;11.10;99.90
3644;DHT22;1838;50.742;7.158;2023-04-01T05:54:37;11.10;99.90
3644;DHT22;1838;50.742;7.158;2023-04-01T05:57:02;11.00;99.90
3644;DHT22;1838;50.742;7.158;2023-04-01T05:59:28;11.00;99.90
3644;DHT22;1838;50.742;7.158;2023-04-01T06:01:56;10.90;99.90
3644;DHT22;1838;50.742;7.158;2023-04-01T06:04:22;10.90;99.90
3644;DHT22;1838;50.742;7.158;2023-04-01T06:06:48;10.90;99.90
3644;DHT22;1838;50.742;7.158;2023-04-01T06:11:55;11.00;99.90
3644;DHT22;1838;50.742;7.158;2023-04-01T06:14:34;11.00;99.90
3644;DHT22;1838;50.742;7.158;2023-04-01T06:28:05;11.20;99.90
3644;DHT22;1838;50.742;7.158;2023-04-01T06:30:43;11.20;99.90
3644;DHT22;1838;50.742;7.158;2023-04-01T06:33:20;11.30;99.90
3644;DHT22;1838;50.742;7.158;2023-04-01T06:36:06;11.30;99.90
3644;DHT22;1838;50.742;7.158;2023-04-01T06:41:28;11.30;99.90
3644;DHT22;1838;50.742;7.158;2023-04-01T06:44:16;11.40;99.90
3644;DHT22;1838;50.742;7.158;2023-04-01T06:46:51;11.40;99.90
3644;DHT22;1838;50.742;7.158;2023-04-01T06:49:33;11.40;99.90
3644;DHT22;1838;50.742;7.158;2023-04-01T06:52:14;11.40;99.90
3644;DHT22;1838;50.742;7.158;2023-04-01T06:54:52;11.40;99.90
3644;DHT22;1838;50.742;7.158;2023-04-01T06:59:54;11.40;99.90
3644;DHT22;1838;50.742;7.158;2023-04-01T07:04:57;11.50;99.90
3644;DHT22;1838;50.742;7.158;2023-04-01T07:07:39;11.50;99.90
3644;DHT22;1838;50.742;7.158;2023-04-01T07:10:19;11.50;99.90
3644;DHT22;1838;50.742;7.158;2023-04-01T07:12:50;11.50;99.90
3644;DHT22;1838;50.742;7.158;2023-04-01T07:15:26;11.50;99.90
3644;DHT22;1838;50.742;7.158;2023-04-01T07:18:01;11.60;99.90
3644;DHT22;1838;50.742;7.158;2023-04-01T07:20:30;11.50;99.90
3644;DHT22;1838;50.742;7.158;2023-04-01T07:22:59;11.60;99.90
3644;DHT22;1838;50.742;7.158;2023-04-01T07:25:30;11.70;99.90
3644;DHT22;1838;50.742;7.158;2023-04-01T07:28:11;11.80;99.90
3644;DHT22;1838;50.742;7.158;2023-04-01T07:30:59;11.80;99.90
3644;DHT22;1838;50.742;7.158;2023-04-01T07:33:39;11.80;99.90
3644;DHT22;1838;50.742;7.158;2023-04-01T07:36:43;11.90;99.90
3644;DHT22;1838;50.742;7.158;2023-04-01T07:42:30;12.00;99.90
3644;DHT22;1838;50.742;7.158;2023-04-01T07:45:49;12.00;99.90
3644;DHT22;1838;50.742;7.158;2023-04-01T07:48:01;12.10;99.90
3644;DHT22;1838;50.742;7.158;2023-04-01T07:50:29;12.10;99.90
3644;DHT22;1838;50.742;7.158;2023-04-01T07:53:10;12.10;99.90
3644;DHT22;1838;50.742;7.158;2023-04-01T07:56:06;12.20;99.90
3644;DHT22;1838;50.742;7.158;2023-04-01T07:59:07;12.20;99.90
3644;DHT22;1838;50.742;7.158;2023-04-01T08:07:13;12.30;99.90
3644;DHT22;1838;50.742;7.158;2023-04-01T08:09:53;12.30;99.90
3644;DHT22;1838;50.742;7.158;2023-04-01T08:12:46;12.30;99.90
3644;DHT22;1838;50.742;7.158;2023-04-01T08:18:08;12.30;99.90
3644;DHT22;1838;50.742;7.158;2023-04-01T08:20:47;12.30;99.90
3644;DHT22;1838;50.742;7.158;2023-04-01T08:23:24;12.40;99.90
3644;DHT22;1838;50.742;7.158;2023-04-01T08:26:01;12.40;99.90
3644;DHT22;1838;50.742;7.158;2023-04-01T08:28:37;12.40;99.90
3644;DHT22;1838;50.742;7.158;2023-04-01T08:31:10;12.50;99.90
3644;DHT22;1838;50.742;7.158;2023-04-01T08:33:37;12.30;99.90
3644;DHT22;1838;50.742;7.158;2023-04-01T08:36:19;12.40;99.90
3644;DHT22;1838;50.742;7.158;2023-04-01T08:38:49;12.40;99.90
3644;DHT22;1838;50.742;7.158;2023-04-01T08:47:18;12.50;99.90
3644;DHT22;1838;50.742;7.158;2023-04-01T08:50:05;12.50;99.90
3644;DHT22;1838;50.742;7.158;2023-04-01T09:00:48;12.40;99.90
3644;DHT22;1838;50.742;7.158;2023-04-01T09:03:42;12.40;99.90
3644;DHT22;1838;50.742;7.158;2023-04-01T09:06:27;12.40;99.90
3644;DHT22;1838;50.742;7.158;2023-04-01T09:09:43;12.30;99.90
3644;DHT22;1838;50.742;7.158;2023-04-01T09:20:37;12.30;99.90
3644;DHT22;1838;50.742;7.158;2023-04-01T09:28:58;12.30;99.90
3644;DHT22;1838;50.742;7.158;2023-04-01T09:31:43;12.40;99.90
3644;DHT22;1838;50.742;7.158;2023-04-01T09:34:44;12.40;99.90
3644;DHT22;1838;50.742;7.158;2023-04-01T09:37:21;12.50;99.90
3644;DHT22;1838;50.742;7.158;2023-04-01T09:48:24;12.40;99.90
3644;DHT22;1838;50.742;7.158;2023-04-01T09:51:17;12.40;99.90
3644;DHT22;1838;50.742;7.158;2023-04-01T10:05:04;12.60;99.90
3644;DHT22;1838;50.742;7.158;2023-04-01T10:08:08;12.60;99.90
3644;DHT22;1838;50.742;7.158;2023-04-01T10:14:05;12.60;99.90
3644;DHT22;1838;50.742;7.158;2023-04-01T10:19:41;12.60;99.90
3644;DHT22;1838;50.742;7.158;2023-04-01T10:27:49;12.60;99.90
3644;DHT22;1838;50.742;7.158;2023-04-01T10:47:39;12.90;99.90
3644;DHT22;1838;50.742;7.158;2023-04-01T10:50:25;12.90;99.90
3644;DHT22;1838;50.742;7.158;2023-04-01T10:55:45;13.00;99.90
3644;DHT22;1838;50.742;7.158;2023-04-01T11:06:52;13.20;99.90
3644;DHT22;1838;50.742;7.158;2023-04-01T11:28:50;13.60;99.90
3644;DHT22;1838;50.742;7.158;2023-04-01T11:34:22;13.60;99.90
3644;DHT22;1838;50.742;7.158;2023-04-01T11:37:09;13.60;99.90
3644;DHT22;1838;50.742;7.158;2023-04-01T11:42:46;13.50;99.90
3644;DHT22;1838;50.742;7.158;2023-04-01T11:45:37;13.50;99.90
3644;DHT22;1838;50.742;7.158;2023-04-01T11:54:06;13.40;99.90
3644;DHT22;1838;50.742;7.158;2023-04-01T12:00:05;13.30;99.90
3644;DHT22;1838;50.742;7.158;2023-04-01T12:03:00;13.30;99.90
3644;DHT22;1838;50.742;7.158;2023-04-01T12:05:46;13.30;99.90
3644;DHT22;1838;50.742;7.158;2023-04-01T12:11:04;13.30;99.90
3644;DHT22;1838;50.742;7.158;2023-04-01T12:13:53;13.40;99.90
3644;DHT22;1838;50.742;7.158;2023-04-01T12:16:46;13.30;99.90
3644;DHT22;1838;50.742;7.158;2023-04-01T12:25:02;13.30;99.90
3644;DHT22;1838;50.742;7.158;2023-04-01T12:27:43;13.20;99.90
3644;DHT22;1838;50.742;7.158;2023-04-01T12:30:30;13.30;99.90
3644;DHT22;1838;50.742;7.158;2023-04-01T12:33:18;13.30;99.90
3644;DHT22;1838;50.742;7.158;2023-04-01T12:36:00;13.30;99.90
3644;DHT22;1838;50.742;7.158;2023-04-01T12:38:43;13.30;99.90
3644;DHT22;1838;50.742;7.158;2023-04-01T12:46:53;13.40;99.90
3644;DHT22;1838;50.742;7.158;2023-04-01T12:49:31;13.50;99.90
3644;DHT22;1838;50.742;7.158;2023-04-01T12:52:12;13.60;99.90
3644;DHT22;1838;50.742;7.158;2023-04-01T12:55:17;13.60;99.90
3644;DHT22;1838;50.742;7.158;2023-04-01T12:58:10;13.60;99.90
3644;DHT22;1838;50.742;7.158;2023-04-01T13:17:10;13.40;99.90
3644;DHT22;1838;50.742;7.158;2023-04-01T13:20:02;13.40;99.90
3644;DHT22;1838;50.742;7.158;2023-04-01T13:22:58;13.40;99.90
3644;DHT22;1838;50.742;7.158;2023-04-01T13:25:40;13.40;99.90
3644;DHT22;1838;50.742;7.158;2023-04-01T13:28:26;13.30;99.90
3644;DHT22;1838;50.742;7.158;2023-04-01T13:36:28;13.40;99.90
3644;DHT22;1838;50.742;7.158;2023-04-01T13:39:07;13.40;99.90
3644;DHT22;1838;50.742;7.158;2023-04-01T13:41:38;13.50;99.90
3644;DHT22;1838;50.742;7.158;2023-04-01T13:44:20;13.50;99.90
3644;DHT22;1838;50.742;7.158;2023-04-01T13:46:58;13.60;99.90
3644;DHT22;1838;50.742;7.158;2023-04-01T13:49:55;13.70;99.90
3644;DHT22;1838;50.742;7.158;2023-04-01T13:58:43;13.90;99.90
3644;DHT22;1838;50.742;7.158;2023-04-01T14:06:56;13.90;99.90
3644;DHT22;1838;50.742;7.158;2023-04-01T14:09:33;13.90;99.90
3644;DHT22;1838;50.742;7.158;2023-04-01T14:12:21;13.90;99.90
3644;DHT22;1838;50.742;7.158;2023-04-01T14:20:23;13.80;99.90
3644;DHT22;1838;50.742;7.158;2023-04-01T14:28:35;13.90;99.90
3644;DHT22;1838;50.742;7.158;2023-04-01T14:34:21;14.00;99.90
3644;DHT22;1838;50.742;7.158;2023-04-01T14:37:17;14.00;99.90
3644;DHT22;1838;50.742;7.158;2023-04-01T14:45:46;13.70;99.90
3644;DHT22;1838;50.742;7.158;2023-04-01T14:50:55;13.60;99.90
3644;DHT22;1838;50.742;7.158;2023-04-01T14:55:53;13.50;99.90
3644;DHT22;1838;50.742;7.158;2023-04-01T14:58:22;13.60;99.90
3644;DHT22;1838;50.742;7.158;2023-04-01T15:04:02;13.70;99.90
3644;DHT22;1838;50.742;7.158;2023-04-01T15:17:26;13.80;99.90
3644;DHT22;1838;50.742;7.158;2023-04-01T15:20:18;13.80;99.90
3644;DHT22;1838;50.742;7.158;2023-04-01T15:26:13;13.70;99.90
3644;DHT22;1838;50.742;7.158;2023-04-01T15:34:32;13.60;99.90
3644;DHT22;1838;50.742;7.158;2023-04-01T15:40:01;13.50;99.90
3644;DHT22;1838;50.742;7.158;2023-04-01T15:45:42;13.40;99.90
3644;DHT22;1838;50.742;7.158;2023-04-01T15:48:20;13.30;99.90
3644;DHT22;1838;50.742;7.158;2023-04-01T15:50:55;13.30;99.90
3644;DHT22;1838;50.742;7.158;2023-04-01T15:54:38;13.40;99.90
3644;DHT22;1838;50.742;7.158;2023-04-01T15:59:44;13.40;99.90
3644;DHT22;1838;50.742;7.158;2023-04-01T16:02:35;13.40;99.90
3644;DHT22;1838;50.742;7.158;2023-04-01T16:05:23;13.40;99.90
3644;DHT22;1838;50.742;7.158;2023-04-01T16:10:56;13.30;99.90
3644;DHT22;1838;50.742;7.158;2023-04-01T16:16:31;13.20;99.90
3644;DHT22;1838;50.742;7.158;2023-04-01T16:19:13;13.10;99.90
3644;DHT22;1838;50.742;7.158;2023-04-01T16:21:50;13.20;99.90
3644;DHT22;1838;50.742;7.158;2023-04-01T16:29:41;13.20;99.90
3644;DHT22;1838;50.742;7.158;2023-04-01T16:32:46;13.10;99.90
3644;DHT22;1838;50.742;7.158;2023-04-01T16:35:40;13.10;99.90
3644;DHT22;1838;50.742;7.158;2023-04-01T16:43:46;13.00;99.90
3644;DHT22;1838;50.742;7.158;2023-04-01T16:46:38;12.90;99.90
3644;DHT22;1838;50.742;7.158;2023-04-01T16:51:52;12.90;99.90
3644;DHT22;1838;50.742;7.158;2023-04-01T16:57:37;13.00;99.90
3644;DHT22;1838;50.742;7.158;2023-04-01T17:03:13;12.80;99.90
3644;DHT22;1838;50.742;7.158;2023-04-01T17:05:55;12.80;99.90
3644;DHT22;1838;50.742;7.158;2023-04-01T17:11:24;12.70;99.90
3644;DHT22;1838;50.742;7.158;2023-04-01T17:16:42;12.60;99.90
3644;DHT22;1838;50.742;7.158;2023-04-01T17:19:40;12.60;99.90
3644;DHT22;1838;50.742;7.158;2023-04-01T17:25:20;12.50;99.90
3644;DHT22;1838;50.742;7.158;2023-04-01T17:28:05;12.50;99.90
3644;DHT22;1838;50.742;7.158;2023-04-01T17:30:46;12.50;99.90
3644;DHT22;1838;50.742;7.158;2023-04-01T17:42:14;12.30;99.90
3644;DHT22;1838;50.742;7.158;2023-04-01T17:44:45;12.30;99.90
3644;DHT22;1838;50.742;7.158;2023-04-01T17:52:34;12.10;99.90
3644;DHT22;1838;50.742;7.158;2023-04-01T17:55:43;12.10;99.90
3644;DHT22;1838;50.742;7.158;2023-04-01T18:20:02;11.80;99.90
3644;DHT22;1838;50.742;7.158;2023-04-01T18:22:48;11.80;99.90
3644;DHT22;1838;50.742;7.158;2023-04-01T18:25:40;11.70;99.90
3644;DHT22;1838;50.742;7.158;2023-04-01T18:30:53;11.70;99.90
3644;DHT22;1838;50.742;7.158;2023-04-01T18:38:35;11.70;99.90
3644;DHT22;1838;50.742;7.158;2023-04-01T18:46:33;11.70;99.90
3644;DHT22;1838;50.742;7.158;2023-04-01T18:51:44;11.60;99.90
3644;DHT22;1838;50.742;7.158;2023-04-01T18:54:19;11.60;99.90
3644;DHT22;1838;50.742;7.158;2023-04-01T18:56:48;11.60;99.90
3644;DHT22;1838;50.742;7.158;2023-04-01T18:59:21;11.60;99.90
3644;DHT22;1838;50.742;7.158;2023-04-01T19:04:43;11.60;99.90
3644;DHT22;1838;50.742;7.158;2023-04-01T19:10:40;11.60;99.90
3644;DHT22;1838;50.742;7.158;2023-04-01T19:13:29;11.60;99.90
3644;DHT22;1838;50.742;7.158;2023-04-01T19:27:21;11.50;99.90
3644;DHT22;1838;50.742;7.158;2023-04-01T19:30:17;11.50;99.90
3644;DHT22;1838;50.742;7.158;2023-04-01T19:33:02;11.50;99.90
3644;DHT22;1838;50.742;7.158;2023-04-01T19:38:26;11.50;99.90
3644;DHT22;1838;50.742;7.158;2023-04-01T19:41:11;11.50;99.90
3644;DHT22;1838;50.742;7.158;2023-04-01T19:44:02;11.40;99.90
3644;DHT22;1838;50.742;7.158;2023-04-01T19:46:34;11.50;99.90
3644;DHT22;1838;50.742;7.158;2023-04-01T19:52:00;11.40;99.90
3644;DHT22;1838;50.742;7.158;2023-04-01T19:55:06;11.40;99.90
3644;DHT22;1838;50.742;7.158;2023-04-01T20:00:15;11.30;99.90
3644;DHT22;1838;50.742;7.158;2023-04-01T20:03:01;11.40;99.90
3644;DHT22;1838;50.742;7.158;2023-04-01T20:05:59;11.40;99.90
3644;DHT22;1838;50.742;7.158;2023-04-01T20:08:28;11.40;99.90
3644;DHT22;1838;50.742;7.158;2023-04-01T20:11:17;11.30;99.90
3644;DHT22;1838;50.742;7.158;2023-04-01T20:16:18;11.40;99.90
3644;DHT22;1838;50.742;7.158;2023-04-01T20:18:56;11.40;99.90
3644;DHT22;1838;50.742;7.158;2023-04-01T20:21:45;11.40;99.90
3644;DHT22;1838;50.742;7.158;2023-04-01T20:24:35;11.50;99.90
3644;DHT22;1838;50.742;7.158;2023-04-01T20:27:14;11.40;99.90
3644;DHT22;1838;50.742;7.158;2023-04-01T20:30:08;11.40;99.90
3644;DHT22;1838;50.742;7.158;2023-04-01T20:35:35;11.40;99.90
3644;DHT22;1838;50.742;7.158;2023-04-01T20:38:23;11.40;99.90
3644;DHT22;1838;50.742;7.158;2023-04-01T20:44:08;11.40;99.90
3644;DHT22;1838;50.742;7.158;2023-04-01T20:50:00;11.40;99.90
3644;DHT22;1838;50.742;7.158;2023-04-01T21:10:11;11.30;99.90
3644;DHT22;1838;50.742;7.158;2023-04-01T21:24:27;11.20;99.90
3644;DHT22;1838;50.742;7.158;2023-04-01T21:34:52;11.30;99.90
3644;DHT22;1838;50.742;7.158;2023-04-01T21:48:15;11.20;99.90
3644;DHT22;1838;50.742;7.158;2023-04-01T22:11:11;11.00;99.90
3644;DHT22;1838;50.742;7.158;2023-04-01T22:22:18;10.90;99.90
3644;DHT22;1838;50.742;7.158;2023-04-01T22:25:03;10.80;99.90
3644;DHT22;1838;50.742;7.158;2023-04-01T22:32:42;11.00;99.90
3644;DHT22;1838;50.742;7.158;2023-04-01T22:35:15;11.00;99.90
3644;DHT22;1838;50.742;7.158;2023-04-01T22:40:53;11.00;99.90
3644;DHT22;1838;50.742;7.158;2023-04-01T22:43:30;11.00;99.90
3644;DHT22;1838;50.742;7.158;2023-04-01T22:48:56;10.90;99.90
3644;DHT22;1838;50.742;7.158;2023-04-01T22:51:40;10.70;99.90
3644;DHT22;1838;50.742;7.158;2023-04-01T22:54:32;10.70;99.90
3644;DHT22;1838;50.742;7.158;2023-04-01T22:57:03;10.70;99.90
3644;DHT22;1838;50.742;7.158;2023-04-01T22:59:46;10.70;99.90
3644;DHT22;1838;50.742;7.158;2023-04-01T23:02:59;10.60;99.90
3644;DHT22;1838;50.742;7.158;2023-04-01T23:05:13;10.50;99.90
3644;DHT22;1838;50.742;7.158;2023-04-01T23:08:00;10.50;99.90
3644;DHT22;1838;50.742;7.158;2023-04-01T23:10:42;10.40;99.90
3644;DHT22;1838;50.742;7.158;2023-04-01T23:13:20;10.40;99.90
3644;DHT22;1838;50.742;7.158;2023-04-01T23:15:47;10.40;99.90
3644;DHT22;1838;50.742;7.158;2023-04-01T23:24:48;10.50;99.90
3644;DHT22;1838;50.742;7.158;2023-04-01T23:29:14;10.50;99.90
3644;DHT22;1838;50.742;7.158;2023-04-01T23:31:45;10.40;99.90
3644;DHT22;1838;50.742;7.158;2023-04-01T23:36:51;10.40;99.90
3644;DHT22;1838;50.742;7.158;2023-04-01T23:39:32;10.40;99.90
3644;DHT22;1838;50.742;7.158;2023-04-01T23:42:15;10.40;99.90
3644;DHT22;1838;50.742;7.158;2023-04-01T23:44:45;10.30;99.90
3644;DHT22;1838;50.742;7.158;2023-04-01T23:47:15;10.30;99.90
3644;DHT22;1838;50.742;7.158;2023-04-01T23:49:45;10.30;99.90
3644;DHT22;1838;50.742;7.158;2023-04-01T23:52:24;10.30;99.90
3644;DHT22;1838;50.742;7.158;2023-04-01T23:54:59;10.20;99.90
3644;DHT22;1838;50.742;7.158;2023-04-01T23:57:32;10.20;99.90
